Time;durP1;ratioP1;P1;durP2;ratioP2;P2;SDS_P1;SDS_P2;PMS_P1;PMS_P2;Temp;Humidity;BMP_temperature;BMP_pressure;BME280_temperature;BME280_humidity;BME280_pressure;Samples;Min_cycle;Max_cycle;Signal;HPM_P1;HPM_P2
2023/02/07 00:01:19;;;;;;;1999.90;999.90;;;;;;;-4.21;91.20;99919.19;5031439;28;20482;-80
2023/02/07 00:03:45;;;;;;;1999.90;999.90;;;;;;;-4.30;92.21;99918.28;5017693;28;20034;-81
2023/02/07 00:06:17;;;;;;;1999.90;999.90;;;;;;;-4.28;91.87;99923.47;4993944;28;20030;-82
2023/02/07 00:08:43;;;;;;;1999.90;999.90;;;;;;;-4.49;94.17;99918.44;5011285;28;20064;-83
2023/02/07 00:11:11;;;;;;;1999.90;999.90;;;;;;;-4.58;98.34;99930.88;5010886;28;20057;-78
2023/02/07 00:13:36;;;;;;;1999.90;999.90;;;;;;;-4.80;100.00;99930.44;5010514;28;20040;-78
2023/02/07 00:16:04;;;;;;;1999.90;999.90;;;;;;;-4.94;100.00;99918.41;5011298;28;20025;-78
2023/02/07 00:18:30;;;;;;;1999.90;999.90;;;;;;;-4.94;100.00;99921.09;5010885;28;20026;-81
2023/02/07 00:20:59;;;;;;;1999.90;999.90;;;;;;;-5.03;100.00;99925.47;5011014;28;20117;-80
2023/02/07 00:23:25;;;;;;;1999.90;999.90;;;;;;;-5.05;100.00;99931.97;5010756;28;20041;-82
2023/02/07 00:25:50;;;;;;;1999.90;999.90;;;;;;;-5.09;100.00;99933.22;5010841;28;20025;-79
2023/02/07 00:28:16;;;;;;;1999.90;999.90;;;;;;;-5.11;100.00;99927.22;4993462;28;20064;-78
2023/02/07 00:30:41;;;;;;;1999.90;999.90;;;;;;;-5.08;100.00;99938.44;5010931;28;20382;-77
2023/02/07 00:33:07;;;;;;;1999.90;999.90;;;;;;;-5.05;100.00;99940.81;5010771;28;20057;-78
2023/02/07 00:35:32;;;;;;;1999.90;999.90;;;;;;;-5.06;100.00;99935.59;5010793;28;20041;-79
2023/02/07 00:37:57;;;;;;;1999.90;999.90;;;;;;;-5.11;100.00;99944.06;5010757;28;20088;-78
2023/02/07 00:40:23;;;;;;;1999.90;999.90;;;;;;;-5.17;100.00;99947.31;5010624;28;20038;-79
2023/02/07 00:42:48;;;;;;;1999.90;999.90;;;;;;;-5.20;100.00;99944.09;5028247;28;20072;-82
2023/02/07 00:45:13;;;;;;;1999.90;999.90;;;;;;;-5.20;100.00;99954.75;5036657;28;20025;-83
2023/02/07 00:47:39;;;;;;;1999.90;999.90;;;;;;;-5.20;100.00;99954.75;5034889;28;20099;-79
2023/02/07 00:50:05;;;;;;;1999.90;999.90;;;;;;;-5.13;100.00;99948.69;5030482;28;20049;-80
2023/02/07 00:52:30;;;;;;;1999.90;999.90;;;;;;;-5.15;100.00;99933.81;5030419;28;20030;-81
2023/02/07 00:54:55;;;;;;;1999.90;999.90;;;;;;;-5.16;100.00;99948.97;5030513;28;20386;-81
2023/02/07 00:57:21;;;;;;;1999.90;999.90;;;;;;;-5.14;100.00;99946.19;5030893;28;20064;-81
2023/02/07 00:59:46;;;;;;;1999.90;999.90;;;;;;;-5.24;100.00;99943.53;5030907;28;20034;-81
2023/02/07 01:02:11;;;;;;;1999.90;999.90;;;;;;;-5.19;100.00;99951.94;5030736;28;20057;-81
2023/02/07 01:04:37;;;;;;;1999.90;999.90;;;;;;;-5.18;100.00;99958.13;5031218;28;20033;-82
2023/02/07 01:07:02;;;;;;;1999.90;999.90;;;;;;;-5.33;100.00;99949.75;5031625;28;20112;-81
2023/02/07 01:09:28;;;;;;;1999.90;999.90;;;;;;;-5.20;100.00;99965.44;5030423;28;20402;-81
2023/02/07 01:11:53;;;;;;;1999.90;999.90;;;;;;;-5.18;100.00;99964.28;5004859;28;20069;-81
2023/02/07 01:14:19;;;;;;;1999.90;999.90;;;;;;;-5.16;100.00;99953.47;4993305;28;20138;-79
2023/02/07 01:16:44;;;;;;;1999.90;999.90;;;;;;;-5.21;100.00;99959.25;4991769;28;20066;-80
2023/02/07 01:19:11;;;;;;;1999.90;999.90;;;;;;;-5.04;100.00;99977.13;4990945;28;20101;-80
2023/02/07 01:21:36;;;;;;;1999.90;999.90;;;;;;;-5.14;100.00;99971.03;4990836;28;20109;-79
2023/02/07 01:24:02;;;;;;;1999.90;999.90;;;;;;;-5.30;100.00;99965.47;4990748;28;20562;-80
2023/02/07 01:26:28;;;;;;;1999.90;999.90;;;;;;;-5.28;100.00;99960.81;4976660;28;20125;-78
2023/02/07 01:28:54;;;;;;;1999.90;999.90;;;;;;;-5.33;100.00;99975.56;4994468;28;20022;-80
2023/02/07 01:31:21;;;;;;;1999.90;999.90;;;;;;;-5.30;100.00;99970.78;4994087;28;20022;-79
2023/02/07 01:33:47;;;;;;;1999.90;999.90;;;;;;;-5.22;100.00;99967.38;4994342;28;20080;-79
2023/02/07 01:36:15;;;;;;;1999.90;999.90;;;;;;;-5.16;100.00;99972.13;4994285;28;20022;-79
2023/02/07 01:38:41;;;;;;;1999.90;999.90;;;;;;;-5.23;100.00;99963.06;5010179;28;20046;-82
2023/02/07 01:41:08;;;;;;;1999.90;999.90;;;;;;;-5.26;100.00;99971.34;5013760;28;20072;-79
2023/02/07 01:43:33;;;;;;;1999.90;999.90;;;;;;;-5.36;100.00;99959.88;5013934;28;20041;-80
2023/02/07 01:45:59;;;;;;;1999.90;999.90;;;;;;;-5.39;100.00;99955.66;5014837;28;20026;-82
2023/02/07 01:48:34;;;;;;;1999.90;999.90;;;;;;;-5.41;100.00;99968.28;5015468;28;20048;-84
2023/02/07 01:51:02;;;;;;;1999.90;999.90;;;;;;;-5.46;100.00;99960.72;5015333;28;20065;-85
2023/02/07 01:53:29;;;;;;;1999.90;999.90;;;;;;;-5.55;100.00;99958.09;5015732;28;20029;-83
2023/02/07 01:55:57;;;;;;;1999.90;999.90;;;;;;;-5.67;100.00;99960.06;5015881;28;20026;-83
2023/02/07 01:58:23;;;;;;;1999.90;999.90;;;;;;;-5.54;100.00;99959.75;5015403;28;20030;-84
2023/02/07 02:00:50;;;;;;;1999.90;999.90;;;;;;;-5.52;100.00;99961.31;5015373;28;20064;-82
2023/02/07 02:03:15;;;;;;;1999.90;999.90;;;;;;;-5.58;100.00;99956.56;5015206;28;20350;-82
2023/02/07 02:05:42;;;;;;;1999.90;999.90;;;;;;;-5.60;100.00;99957.66;5015524;28;20085;-85
2023/02/07 02:08:08;;;;;;;1999.90;999.90;;;;;;;-5.62;100.00;99954.31;5016039;28;20026;-81
2023/02/07 02:11:00;;;;;;;1999.90;999.90;;;;;;;-5.59;100.00;99959.34;5016285;28;20049;-87
2023/02/07 02:14:03;;;;;;;1999.90;999.90;;;;;;;-5.68;100.00;99965.53;4998708;28;20040;-84
2023/02/07 02:16:41;;;;;;;1999.90;999.90;;;;;;;-5.68;100.00;99963.72;5016804;28;20034;-84
2023/02/07 02:19:23;;;;;;;1999.90;999.90;;;;;;;-5.69;100.00;99964.69;5016128;28;20037;-86
2023/02/07 02:22:15;;;;;;;1999.90;999.90;;;;;;;-5.70;100.00;99972.84;5014757;28;20030;-85
2023/02/07 02:24:52;;;;;;;1999.90;999.90;;;;;;;-5.64;100.00;99981.06;5015889;28;20030;-85
2023/02/07 02:27:41;;;;;;;1999.90;999.90;;;;;;;-5.69;100.00;99972.69;5015429;28;20021;-83
2023/02/07 02:30:31;;;;;;;1999.90;999.90;;;;;;;-5.75;100.00;99975.91;5015078;28;20030;-84
2023/02/07 02:33:18;;;;;;;1999.90;999.90;;;;;;;-5.71;100.00;99981.81;5014588;28;20121;-83
2023/02/07 02:36:28;;;;;;;1999.90;999.90;;;;;;;-5.64;100.00;99983.75;4996714;28;20041;-84
2023/02/07 02:39:06;;;;;;;1999.90;999.90;;;;;;;-5.73;100.00;99995.25;4978184;28;20052;-85
2023/02/07 02:41:39;;;;;;;1999.90;999.90;;;;;;;-5.78;100.00;99997.50;5014811;28;20026;-82
2023/02/07 02:44:14;;;;;;;1999.90;999.90;;;;;;;-5.77;100.00;100001.03;5013613;28;20038;-86
2023/02/07 02:46:41;;;;;;;1999.90;999.90;;;;;;;-5.82;100.00;99979.28;4996519;28;20041;-81
2023/02/07 02:49:10;;;;;;;1999.90;999.90;;;;;;;-5.76;100.00;100000.88;4996835;28;20038;-82
2023/02/07 02:51:35;;;;;;;1999.90;999.90;;;;;;;-5.88;100.00;99991.38;4995147;28;20040;-80
2023/02/07 02:54:01;;;;;;;1999.90;999.90;;;;;;;-5.96;100.00;99993.91;5013064;28;20030;-82
2023/02/07 02:56:44;;;;;;;1999.90;999.90;;;;;;;-5.94;100.00;99991.94;5014615;28;20542;-79
2023/02/07 02:59:30;;;;;;;1999.90;999.90;;;;;;;-5.82;100.00;99996.09;5012765;28;20025;-80
2023/02/07 03:02:22;;;;;;;1999.90;999.90;;;;;;;-5.88;100.00;100001.19;4994644;28;20037;-83
2023/02/07 03:05:07;;;;;;;1999.90;999.90;;;;;;;-5.89;100.00;99997.72;5012231;28;20402;-81
2023/02/07 03:07:56;;;;;;;1999.90;999.90;;;;;;;-5.87;100.00;100013.53;5012236;28;20030;-79
2023/02/07 03:10:48;;;;;;;1999.90;999.90;;;;;;;-6.12;100.00;99994.47;4994713;28;20068;-81
2023/02/07 03:13:27;;;;;;;1999.90;999.90;;;;;;;-5.92;100.00;100007.78;4997685;28;20036;-81
2023/02/07 03:16:36;;;;;;;1999.90;999.90;;;;;;;-5.97;100.00;100009.06;5012419;28;20045;-81
2023/02/07 03:19:08;;;;;;;1999.90;999.90;;;;;;;-5.87;100.00;100003.72;4994330;28;20494;-83
2023/02/07 03:21:40;;;;;;;1999.90;999.90;;;;;;;-5.91;100.00;100004.13;5012892;28;20497;-80
2023/02/07 03:24:20;;;;;;;1999.90;999.90;;;;;;;-5.92;100.00;100003.31;5012682;28;20087;-81
2023/02/07 03:26:50;;;;;;;1999.90;999.90;;;;;;;-5.84;100.00;100029.19;5013883;28;20101;-83
2023/02/07 03:29:18;;;;;;;1999.90;999.90;;;;;;;-5.87;100.00;100009.06;5013725;28;20382;-85
2023/02/07 03:31:47;;;;;;;1999.90;999.90;;;;;;;-5.81;100.00;100024.44;5014934;28;20018;-82
2023/02/07 03:34:20;;;;;;;1999.90;999.90;;;;;;;-5.86;100.00;100036.53;5013368;28;20029;-80
2023/02/07 03:36:56;;;;;;;1999.90;999.90;;;;;;;-5.87;100.00;100035.69;5012494;28;20060;-85
2023/02/07 03:39:22;;;;;;;1999.90;999.90;;;;;;;-5.87;100.00;100024.19;5012039;28;20124;-80
2023/02/07 03:41:58;;;;;;;1999.90;999.90;;;;;;;-5.93;100.00;100025.59;5011846;28;20034;-82
2023/02/07 03:44:27;;;;;;;1999.90;999.90;;;;;;;-6.04;100.00;100028.38;5011823;28;20034;-81
2023/02/07 03:46:53;;;;;;;1999.90;999.90;;;;;;;-6.16;100.00;100029.47;5012413;28;20491;-82
2023/02/07 03:49:19;;;;;;;1999.90;999.90;;;;;;;-6.15;100.00;100026.69;5013816;28;20038;-83
2023/02/07 03:51:46;;;;;;;1999.90;999.90;;;;;;;-6.05;100.00;100042.69;5013910;28;20025;-82
2023/02/07 03:54:11;;;;;;;1999.90;999.90;;;;;;;-6.10;100.00;100039.56;5014542;28;20070;-84
2023/02/07 03:56:37;;;;;;;1999.90;999.90;;;;;;;-6.12;100.00;100046.88;5012786;28;20057;-81
2023/02/07 03:59:03;;;;;;;1999.90;999.90;;;;;;;-6.09;100.00;100041.28;4995565;28;20025;-81
2023/02/07 04:01:28;;;;;;;1999.90;999.90;;;;;;;-6.18;100.00;100042.09;5012478;28;20443;-83
2023/02/07 04:03:54;;;;;;;1999.90;999.90;;;;;;;-6.31;100.00;100057.47;5014907;28;20048;-83
2023/02/07 04:06:20;;;;;;;1999.90;999.90;;;;;;;-6.28;100.00;100057.22;5016436;28;20501;-81
2023/02/07 04:08:45;;;;;;;1999.90;999.90;;;;;;;-6.29;100.00;100051.03;5011847;28;20105;-81
2023/02/07 04:11:11;;;;;;;1999.90;999.90;;;;;;;-6.35;100.00;100050.75;5011357;28;20168;-81
2023/02/07 04:13:36;;;;;;;1999.90;999.90;;;;;;;-6.42;100.00;100044.28;5011554;28;20112;-82
2023/02/07 04:16:04;;;;;;;1999.90;999.90;;;;;;;-6.34;100.00;100058.59;5010929;28;20064;-83
2023/02/07 04:18:29;;;;;;;1999.90;999.90;;;;;;;-6.41;100.00;100051.28;5011468;28;20030;-83
2023/02/07 04:21:03;;;;;;;1999.90;999.90;;;;;;;-6.33;100.00;100054.97;5010872;28;20033;-81
2023/02/07 04:23:29;;;;;;;1999.90;999.90;;;;;;;-6.31;100.00;100062.81;5011078;28;20103;-80
2023/02/07 04:25:54;;;;;;;1999.90;999.90;;;;;;;-6.42;100.00;100038.97;5001655;28;20471;-79
2023/02/07 04:28:20;;;;;;;1999.90;999.90;;;;;;;-6.30;100.00;100061.84;4992404;28;20037;-79
2023/02/07 04:30:45;;;;;;;1999.90;999.90;;;;;;;-6.10;100.00;100058.22;4973363;28;20037;-81
2023/02/07 04:33:11;;;;;;;1999.90;999.90;;;;;;;-6.16;100.00;100048.13;4990895;28;20070;-78
2023/02/07 04:35:36;;;;;;;1999.90;999.90;;;;;;;-6.25;100.00;100057.78;4992798;28;20018;-79
2023/02/07 04:38:01;;;;;;;1999.90;999.90;;;;;;;-6.20;100.00;100065.38;5009599;28;20096;-79
2023/02/07 04:40:27;;;;;;;1999.90;999.90;;;;;;;-6.14;100.00;100054.97;5010499;28;20105;-78
2023/02/07 04:42:52;;;;;;;1999.90;999.90;;;;;;;-6.22;100.00;100052.19;5014260;28;20454;-86
2023/02/07 04:45:17;;;;;;;1999.90;999.90;;;;;;;-6.29;100.00;100048.38;5018198;28;20022;-86
2023/02/07 04:47:43;;;;;;;1999.90;999.90;;;;;;;-6.35;100.00;100046.25;5017345;28;20028;-85
2023/02/07 04:50:08;;;;;;;1999.90;999.90;;;;;;;-6.23;100.00;100044.31;5018140;28;20029;-86
2023/02/07 04:52:34;;;;;;;1999.90;999.90;;;;;;;-6.11;100.00;100048.56;5018617;28;20100;-86
2023/02/07 04:54:59;;;;;;;1999.90;999.90;;;;;;;-6.19;100.00;100056.38;5018630;28;20045;-84
2023/02/07 04:57:24;;;;;;;1999.90;999.90;;;;;;;-6.27;100.00;100053.56;5019617;28;20033;-85
2023/02/07 04:59:50;;;;;;;1999.90;999.90;;;;;;;-6.28;100.00;100039.41;5021510;28;20022;-85
2023/02/07 05:02:15;;;;;;;1999.90;999.90;;;;;;;-6.37;100.00;100050.03;5022240;28;20065;-86
2023/02/07 05:04:40;;;;;;;1999.90;999.90;;;;;;;-6.38;100.00;100037.69;5005539;28;20076;-84
2023/02/07 05:07:06;;;;;;;1999.90;999.90;;;;;;;-6.41;100.00;100033.50;5025013;28;20090;-84
2023/02/07 05:09:31;;;;;;;1999.90;999.90;;;;;;;-6.32;100.00;100034.50;5024209;28;20034;-85
2023/02/07 05:11:57;;;;;;;1999.90;999.90;;;;;;;-6.43;100.00;100039.94;5023345;28;20091;-84
2023/02/07 05:14:22;;;;;;;1999.90;999.90;;;;;;;-6.41;100.00;100030.00;5025576;28;20185;-86
2023/02/07 05:16:47;;;;;;;1999.90;999.90;;;;;;;-6.29;100.00;100031.56;5026096;28;20033;-86
2023/02/07 05:19:13;;;;;;;1999.90;999.90;;;;;;;-6.48;100.00;100012.91;5008581;28;20076;-84
2023/02/07 05:21:38;;;;;;;1999.90;999.90;;;;;;;-6.42;100.00;100015.03;5024767;28;20109;-87
2023/02/07 05:24:04;;;;;;;1999.90;999.90;;;;;;;-6.43;100.00;100029.31;5025387;28;20084;-84
2023/02/07 05:26:29;;;;;;;1999.90;999.90;;;;;;;-6.38;100.00;100033.22;5024359;28;20478;-85
2023/02/07 05:28:54;;;;;;;1999.90;999.90;;;;;;;-6.33;100.00;100027.50;5023039;28;20117;-85
2023/02/07 05:31:20;;;;;;;1999.90;999.90;;;;;;;-6.30;100.00;100021.91;5026018;28;20019;-84
2023/02/07 05:33:45;;;;;;;1999.90;999.90;;;;;;;-6.37;100.00;100007.47;5025044;28;20520;-84
2023/02/07 05:36:11;;;;;;;1999.90;999.90;;;;;;;-6.38;100.00;100011.94;5023272;28;20471;-86
2023/02/07 05:38:36;;;;;;;1999.90;999.90;;;;;;;-6.28;100.00;100014.63;5010265;28;20072;-83
2023/02/07 05:41:01;;;;;;;1999.90;999.90;;;;;;;-6.29;100.00;100015.59;5033514;28;20025;-80
2023/02/07 05:43:27;;;;;;;1999.90;999.90;;;;;;;-6.30;100.00;100027.22;5029793;28;20095;-85
2023/02/07 05:45:52;;;;;;;1999.90;999.90;;;;;;;-6.44;100.00;100023.13;5022866;28;20037;-85
2023/02/07 05:48:18;;;;;;;1999.90;999.90;;;;;;;-6.45;100.00;100028.59;5022890;28;20112;-86
2023/02/07 05:50:43;;;;;;;1999.90;999.90;;;;;;;-6.38;100.00;100019.91;5024114;28;20084;-85
2023/02/07 05:53:09;;;;;;;1999.90;999.90;;;;;;;-6.45;100.00;100026.75;5006735;28;20691;-83
2023/02/07 05:55:35;;;;;;;1999.90;999.90;;;;;;;-6.43;100.00;100027.50;5006087;28;20018;-85
2023/02/07 05:58:01;;;;;;;1999.90;999.90;;;;;;;-6.42;100.00;100033.66;5023600;28;20037;-84
2023/02/07 06:00:26;;;;;;;1999.90;999.90;;;;;;;-6.54;100.00;100047.06;5002936;28;20033;-85
2023/02/07 06:02:51;;;;;;;1999.90;999.90;;;;;;;-6.63;100.00;100042.53;5021631;28;20030;-85
2023/02/07 06:05:21;;;;;;;1999.90;999.90;;;;;;;-6.80;100.00;100058.31;5024101;28;20094;-81
2023/02/07 06:07:47;;;;;;;1999.90;999.90;;;;;;;-6.81;100.00;100049.47;5025649;28;20030;-85
2023/02/07 06:10:13;;;;;;;1999.90;999.90;;;;;;;-6.68;100.00;100065.22;5013698;28;20065;-83
2023/02/07 06:12:42;;;;;;;1999.90;999.90;;;;;;;-6.81;100.00;100062.78;5034560;28;20022;-83
2023/02/07 06:15:08;;;;;;;1999.90;999.90;;;;;;;-6.89;100.00;100045.81;5033188;28;20030;-81
2023/02/07 06:17:34;;;;;;;1999.90;999.90;;;;;;;-6.79;100.00;100052.00;5034561;28;20026;-85
2023/02/07 06:19:59;;;;;;;1999.90;999.90;;;;;;;-6.80;100.00;100040.53;5036205;28;20054;-84
2023/02/07 06:22:25;;;;;;;1999.90;999.90;;;;;;;-6.64;100.00;100046.16;5033383;28;20051;-85
2023/02/07 06:24:50;;;;;;;1999.90;999.90;;;;;;;-6.67;100.00;100051.75;5029581;28;20033;-85
2023/02/07 06:27:15;;;;;;;1999.90;999.90;;;;;;;-6.68;100.00;100052.75;5026494;28;20025;-83
2023/02/07 06:29:41;;;;;;;1999.90;999.90;;;;;;;-6.60;100.00;100062.72;5023395;28;20105;-86
2023/02/07 06:32:08;;;;;;;1999.90;999.90;;;;;;;-6.73;100.00;100046.13;5028823;28;20486;-83
2023/02/07 06:34:33;;;;;;;1999.90;999.90;;;;;;;-6.67;100.00;100041.13;5026332;28;20022;-85
2023/02/07 06:36:58;;;;;;;1999.90;999.90;;;;;;;-6.60;100.00;100046.75;5030294;28;20036;-83
2023/02/07 06:39:24;;;;;;;1999.90;999.90;;;;;;;-6.65;100.00;100056.97;5030304;28;20050;-84
2023/02/07 06:41:49;;;;;;;1999.90;999.90;;;;;;;-6.48;100.00;100058.16;5010765;28;20057;-82
2023/02/07 06:44:14;;;;;;;1999.90;999.90;;;;;;;-6.62;100.00;100060.19;5030301;28;20033;-82
2023/02/07 06:46:40;;;;;;;1999.90;999.90;;;;;;;-6.65;100.00;100063.13;5011448;28;20041;-83
2023/02/07 06:49:05;;;;;;;1999.90;999.90;;;;;;;-6.56;100.00;100062.31;5011809;28;20026;-86
2023/02/07 06:51:31;;;;;;;1999.90;999.90;;;;;;;-6.60;100.00;100055.56;5033613;28;20030;-85
2023/02/07 06:53:56;;;;;;;1999.90;999.90;;;;;;;-6.38;100.00;100051.00;5008664;28;20121;-83
2023/02/07 06:56:28;;;;;;;1999.90;999.90;;;;;;;-6.19;100.00;100033.28;5023631;28;20044;-85
2023/02/07 06:58:53;;;;;;;1999.90;999.90;;;;;;;-5.72;100.00;100060.03;5023347;28;20091;-85
2023/02/07 07:01:18;;;;;;;1999.90;999.90;;;;;;;-5.60;100.00;100065.09;5003957;28;20089;-84
2023/02/07 07:03:45;;;;;;;1999.90;999.90;;;;;;;-5.48;100.00;100061.28;5020115;28;20430;-85
2023/02/07 07:06:10;;;;;;;1999.90;999.90;;;;;;;-5.21;100.00;100052.56;5017714;28;20026;-83
2023/02/07 07:08:36;;;;;;;1999.90;999.90;;;;;;;-4.73;100.00;100071.09;5018237;28;20014;-81
2023/02/07 07:11:01;;;;;;;1999.90;999.90;;;;;;;-4.20;100.00;100067.78;5018286;28;20057;-76
2023/02/07 07:13:26;;;;;;;1999.90;999.90;;;;;;;-3.58;100.00;100062.44;5014798;28;20093;-84
2023/02/07 07:15:52;;;;;;;1999.90;999.90;;;;;;;-3.49;100.00;100064.19;5019426;28;20426;-81
2023/02/07 07:18:17;;;;;;;1999.90;999.90;;;;;;;-3.33;100.00;100087.56;5022603;28;20029;-84
2023/02/07 07:20:43;;;;;;;1999.90;999.90;;;;;;;-3.18;100.00;100080.66;5017678;28;20085;-81
2023/02/07 07:23:08;;;;;;;1999.90;999.90;;;;;;;-3.18;100.00;100086.00;5016217;28;20025;-83
2023/02/07 07:25:34;;;;;;;1999.90;999.90;;;;;;;-3.38;100.00;100093.34;5018571;28;20041;-83
2023/02/07 07:27:59;;;;;;;1999.90;999.90;;;;;;;-3.40;100.00;100079.31;5016273;28;20010;-81
2023/02/07 07:30:24;;;;;;;1999.90;999.90;;;;;;;-3.07;100.00;100087.59;4999339;28;20030;-83
2023/02/07 07:32:50;;;;;;;1999.90;999.90;;;;;;;-2.80;100.00;100092.81;5017158;28;20554;-83
2023/02/07 07:35:15;;;;;;;1999.90;999.90;;;;;;;-2.29;100.00;100092.75;5018170;28;20053;-82
2023/02/07 07:37:41;;;;;;;1999.90;999.90;;;;;;;-1.32;100.00;100095.72;5019408;28;20041;-81
2023/02/07 07:40:07;;;;;;;1999.90;999.90;;;;;;;-0.26;94.28;100094.56;5019364;28;20564;-83
2023/02/07 07:42:34;;;;;;;1999.90;999.90;;;;;;;1.47;79.01;100099.25;5021200;28;20014;-84
2023/02/07 07:44:59;;;;;;;1999.90;999.90;;;;;;;2.50;71.55;100096.50;5020255;28;20026;-81
2023/02/07 07:47:26;;;;;;;1999.90;999.90;;;;;;;3.02;68.66;100080.00;5021038;28;20021;-84
2023/02/07 07:49:52;;;;;;;1999.90;999.90;;;;;;;3.69;64.07;100075.75;5022359;28;20030;-87
2023/02/07 07:52:17;;;;;;;1999.90;999.90;;;;;;;3.53;63.09;100078.75;5021460;28;20026;-85
2023/02/07 07:54:42;;;;;;;1999.90;999.90;;;;;;;3.63;61.38;100091.94;5022252;28;20117;-83
2023/02/07 07:57:08;;;;;;;1999.90;999.90;;;;;;;4.32;59.62;100085.41;5021426;28;20040;-84
2023/02/07 07:59:33;;;;;;;1999.90;999.90;;;;;;;4.53;58.46;100079.03;5023268;28;20014;-85
2023/02/07 08:01:59;;;;;;;1999.90;999.90;;;;;;;3.68;58.98;100092.16;5022338;28;20030;-84
2023/02/07 08:04:24;;;;;;;1999.90;999.90;;;;;;;3.53;61.74;100086.88;5021542;28;20402;-82
2023/02/07 08:06:49;;;;;;;1999.90;999.90;;;;;;;4.32;58.18;100085.41;5004385;28;20022;-83
2023/02/07 08:09:15;;;;;;;1999.90;999.90;;;;;;;5.32;55.31;100079.16;5005672;28;20097;-84
2023/02/07 08:11:40;;;;;;;1999.90;999.90;;;;;;;5.31;53.82;100085.63;5021136;28;20076;-83
2023/02/07 08:14:06;;;;;;;1999.90;999.90;;;;;;;5.86;52.23;100079.72;5020104;28;20030;-84
2023/02/07 08:16:31;;;;;;;1999.90;999.90;;;;;;;6.25;50.45;100084.22;5021688;28;20068;-85
2023/02/07 08:18:56;;;;;;;1999.90;999.90;;;;;;;6.80;47.72;100068.25;5024739;28;20085;-86
2023/02/07 08:21:22;;;;;;;1999.90;999.90;;;;;;;6.78;47.02;100092.13;5023806;28;20026;-88
2023/02/07 08:23:47;;;;;;;1999.90;999.90;;;;;;;4.94;50.53;100062.66;5025026;28;20402;-85
2023/02/07 08:26:13;;;;;;;1999.90;999.90;;;;;;;6.46;48.33;100088.50;5025510;28;20112;-84
2023/02/07 08:28:38;;;;;;;1999.90;999.90;;;;;;;6.17;48.17;100073.56;5025713;28;20030;-84
2023/02/07 08:31:05;;;;;;;1999.90;999.90;;;;;;;5.92;47.94;100078.03;5023921;28;20030;-85
2023/02/07 08:33:31;;;;;;;1999.90;999.90;;;;;;;5.35;49.52;100087.72;5025202;28;20045;-84
2023/02/07 08:35:58;;;;;;;1999.90;999.90;;;;;;;5.99;48.32;100100.59;5027036;28;20029;-83
2023/02/07 08:38:23;;;;;;;1999.90;999.90;;;;;;;4.30;51.59;100097.50;5027317;28;20513;-84
2023/02/07 08:40:49;;;;;;;1999.90;999.90;;;;;;;5.78;49.77;100082.66;5025933;28;20030;-84
2023/02/07 08:43:15;;;;;;;1999.90;999.90;;;;;;;5.44;49.81;100085.63;5018184;28;20041;-80
2023/02/07 08:45:44;;;;;;;1999.90;999.90;;;;;;;5.58;48.92;100064.72;5015846;28;20105;-79
2023/02/07 08:48:09;;;;;;;1999.90;999.90;;;;;;;5.83;49.00;100085.56;5018242;28;20034;-84
2023/02/07 08:50:34;;;;;;;1999.90;999.90;;;;;;;6.18;50.12;100077.97;5016758;28;20026;-85
2023/02/07 08:53:00;;;;;;;1999.90;999.90;;;;;;;7.31;47.36;100079.81;5017857;28;20112;-81
2023/02/07 08:55:25;;;;;;;1999.90;999.90;;;;;;;6.73;46.08;100078.34;5016990;28;20386;-83
2023/02/07 08:57:51;;;;;;;1999.90;999.90;;;;;;;6.82;49.55;100071.59;5016139;28;20040;-84
2023/02/07 09:00:16;;;;;;;1999.90;999.90;;;;;;;7.58;48.60;100074.16;5016743;28;20033;-81
2023/02/07 09:02:42;;;;;;;1999.90;999.90;;;;;;;8.19;46.53;100069.50;5016586;28;20026;-83
2023/02/07 09:05:09;;;;;;;1999.90;999.90;;;;;;;8.10;44.63;100065.44;5016242;28;20087;-86
2023/02/07 09:07:34;;;;;;;1999.90;999.90;;;;;;;8.57;43.03;100069.28;5015959;28;20032;-87
2023/02/07 09:10:01;;;;;;;1999.90;999.90;;;;;;;7.79;45.18;100065.56;5016524;28;20022;-81
2023/02/07 09:12:26;;;;;;;1999.90;999.90;;;;;;;6.95;45.54;100044.31;5016216;28;20072;-80
2023/02/07 09:14:52;;;;;;;1999.90;999.90;;;;;;;6.44;46.77;100023.50;4998646;28;20014;-83
2023/02/07 09:17:17;;;;;;;1999.90;999.90;;;;;;;7.07;45.71;100048.00;5016010;28;20030;-82
2023/02/07 09:19:43;;;;;;;1999.90;999.90;;;;;;;6.92;45.87;100028.44;5017120;28;20483;-84
2023/02/07 09:22:08;;;;;;;1999.90;999.90;;;;;;;7.75;43.62;100050.72;5017372;28;20076;-78
2023/02/07 09:24:33;;;;;;;1999.90;999.90;;;;;;;7.17;43.33;100023.84;5017052;28;20029;-81
2023/02/07 09:27:02;;;;;;;1999.90;999.90;;;;;;;7.23;42.96;100031.13;5017689;28;20045;-82
2023/02/07 09:29:30;;;;;;;1999.90;999.90;;;;;;;7.73;43.30;100058.28;5016725;28;20028;-82
2023/02/07 09:31:55;;;;;;;1999.90;999.90;;;;;;;7.65;44.05;100039.50;5016885;28;20034;-81
2023/02/07 09:34:20;;;;;;;1999.90;999.90;;;;;;;7.54;42.57;100044.66;5015786;28;20069;-84
2023/02/07 09:36:48;;;;;;;1999.90;999.90;;;;;;;7.84;42.44;100057.53;5018527;28;20026;-84
2023/02/07 09:39:14;;;;;;;1999.90;999.90;;;;;;;7.07;43.04;100039.00;5019261;28;20045;-83
2023/02/07 09:41:39;;;;;;;1999.90;999.90;;;;;;;6.81;44.15;100049.00;5019840;28;20022;-85
2023/02/07 09:44:11;;;;;;;1999.90;999.90;;;;;;;7.63;42.34;100047.91;5001362;28;20033;-89
2023/02/07 09:46:45;;;;;;;1999.90;999.90;;;;;;;5.90;44.35;100033.97;5015970;28;20030;-86
2023/02/07 09:49:26;;;;;;;1999.90;999.90;;;;;;;7.73;41.56;100044.66;5017982;28;20030;-85
2023/02/07 09:51:55;;;;;;;1999.90;999.90;;;;;;;6.13;44.53;100034.31;5016491;28;20088;-79
2023/02/07 09:54:29;;;;;;;1999.90;999.90;;;;;;;6.37;42.73;100028.13;5016679;28;20029;-87
2023/02/07 09:56:58;;;;;;;1999.90;999.90;;;;;;;6.66;42.81;100034.88;5016052;28;20068;-85
2023/02/07 09:59:37;;;;;;;1999.90;999.90;;;;;;;6.77;42.94;100022.44;5022026;28;20034;-83
2023/02/07 10:02:36;;;;;;;1999.90;999.90;;;;;;;7.30;40.52;100012.81;5021089;28;20037;-87
2023/02/07 10:05:14;;;;;;;1999.90;999.90;;;;;;;8.47;38.54;100022.63;5017064;28;20046;-91
2023/02/07 10:07:40;;;;;;;1999.90;999.90;;;;;;;7.24;40.88;100024.59;5020186;28;20041;-87
2023/02/07 10:10:17;;;;;;;1999.90;999.90;;;;;;;7.50;40.75;100029.81;5022708;28;20026;-87
2023/02/07 10:13:23;;;;;;;1999.90;999.90;;;;;;;7.71;39.77;100033.16;5022158;28;20029;-90
2023/02/07 10:15:49;;;;;;;;;;;;;;;9.07;37.38;100028.88;5006701;28;20046;-86
2023/02/07 10:18:17;;;;;;;;;;;;;;;7.56;38.19;100036.25;5018165;28;19967;-84
2023/02/07 10:20:45;;;;;;;1999.90;999.90;;;;;;;7.41;39.76;100038.47;5019232;28;19918;-88
2023/02/07 10:23:19;;;;;;;1999.90;999.90;;;;;;;6.64;40.59;100033.44;5021895;28;20037;-89
2023/02/07 10:26:00;;;;;;;1999.90;999.90;;;;;;;5.07;44.91;100022.00;5020993;28;20022;-88
2023/02/07 10:28:37;;;;;;;1999.90;999.90;;;;;;;6.16;42.20;100012.16;5005879;28;20022;-87
2023/02/07 10:31:11;;;;;;;1999.90;999.90;;;;;;;7.07;40.99;100020.78;5022248;28;20030;-84
2023/02/07 10:33:45;;;;;;;1999.90;999.90;;;;;;;6.02;42.17;100013.25;5020585;28;20570;-88
2023/02/07 10:36:14;;;;;;;1999.90;999.90;;;;;;;6.25;42.22;100012.72;5017882;28;20095;-87
2023/02/07 10:38:53;;;;;;;1999.90;999.90;;;;;;;6.98;41.24;100003.06;5016950;28;20134;-88
2023/02/07 10:41:26;;;;;;;1999.90;999.90;;;;;;;7.94;38.84;100000.63;4998335;28;20028;-90
2023/02/07 10:43:54;;;;;;;1999.90;999.90;;;;;;;7.89;39.24;99986.88;5021801;28;20032;-89
2023/02/07 10:46:21;;;;;;;1999.90;999.90;;;;;;;7.76;38.94;99995.19;5018769;28;20018;-84
2023/02/07 10:48:46;;;;;;;1999.90;999.90;;;;;;;6.84;40.61;99985.16;5015278;28;20022;-78
2023/02/07 10:51:21;;;;;;;1999.90;999.90;;;;;;;5.95;42.66;99989.91;5015889;28;20025;-83
2023/02/07 10:54:01;;;;;;;1999.90;999.90;;;;;;;6.46;43.04;99977.06;4997334;28;20458;-84